Friendship, Texas
Current Conditions -  °F | °C
As of 7:58 AM on Saturday 20 Dec 2014 (Local Time) from KGRK Reporting Station
Overcast Overcast  
Wind Chill: 43°   Ceiling: 1400
Heat Index: 46°   Visibility: 9mi
Dew Point: 44°   Wind: 6mph
Humidity: 92%   Direction: 360°N
Pressure: 30.22"   Gusts: NA
Location:  30.7258°N, 97.436°W
Report Text: KGRK 201358Z AUTO 36005KT 9SM OVC014 08/06 A3022 RMK AO2 SLP236 T00770064
Loading
Personal Weather Stations






























Interactive Weather Map New forecast layout! Learn more

10-Day Weather Forecast

Advertisements
Track Severe Weather on mobile